Time;durP1;ratioP1;P1;durP2;ratioP2;P2;SDS_P1;SDS_P2;PMS_P1;PMS_P2;Temp;Humidity;BMP_temperature;BMP_pressure;BME280_temperature;BME280_humidity;BME280_pressure;Samples;Min_cycle;Max_cycle;Signal;HPM_P1;HPM_P2
2023/05/28 00:00:11;;;;;;;;;8.75;7.00;;;;;;;;2016182;28;1822179;-71
2023/05/28 00:01:24;;;;;;;;;12.67;8.00;;;;;;;;2016423;28;1821096;-71
2023/05/28 00:02:34;;;;;;;;;10.00;8.50;;;;;;;;1962707;28;2757576;-71
2023/05/28 00:03:46;;;;;;;;;6.50;5.75;;;;;;;;2015671;28;1819036;-71
2023/05/28 00:04:56;;;;;;;;;8.33;7.00;;;;;;;;1985563;28;3456547;-71
2023/05/28 00:06:07;;;;;;;;;8.00;8.00;;;;;;;;2005565;28;2733631;-71
2023/05/28 00:07:21;;;;;;;;;12.00;10.00;;;;;;;;2007515;28;2787741;-71
2023/05/28 00:08:31;;;;;;;;;8.50;7.00;;;;;;;;1962752;28;2472156;-71
2023/05/28 00:09:42;;;;;;;;;8.00;8.00;;;;;;;;2008915;28;2746159;-71
2023/05/28 00:10:59;;;;;;;;;9.00;8.00;;;;;;;;2009429;28;2746067;-71
2023/05/28 00:12:12;;;;;;;;;6.00;6.00;;;;;;;;2012990;28;2730479;-71
2023/05/28 00:13:23;;;;;;;;;9.50;7.50;;;;;;;;1963700;28;2750284;-71
2023/05/28 00:14:34;;;;;;;;;8.00;8.00;;;;;;;;2018782;28;1814858;-71
2023/05/28 00:15:45;;;;;;;;;9.25;8.25;;;;;;;;2000045;28;1826342;-71
2023/05/28 00:16:56;;;;;;;;;10.50;9.00;;;;;;;;1985329;28;2755496;-71
2023/05/28 00:18:11;;;;;;;;;11.00;9.00;;;;;;;;2006697;28;2773208;-71
2023/05/28 00:19:22;;;;;;;;;9.00;7.75;;;;;;;;2000485;28;1825259;-71
2023/05/28 00:20:32;;;;;;;;;9.00;7.00;;;;;;;;1985342;28;2742994;-71
2023/05/28 00:21:44;;;;;;;;;9.33;8.50;;;;;;;;2009237;28;2751312;-71
2023/05/28 00:22:55;;;;;;;;;9.50;9.25;;;;;;;;2013880;28;1819071;-71
2023/05/28 00:24:08;;;;;;;;;8.50;8.50;;;;;;;;1996664;28;1818998;-71
2023/05/28 00:25:18;;;;;;;;;7.00;7.00;;;;;;;;1983717;28;2737762;-71
2023/05/28 00:26:30;;;;;;;;;10.00;8.00;;;;;;;;2009568;28;2759601;-71
2023/05/28 00:27:40;;;;;;;;;11.00;9.00;;;;;;;;1998368;28;2766920;-71
2023/05/28 00:28:52;;;;;;;;;11.33;8.00;;;;;;;;1991509;28;1829457;-71
2023/05/28 00:30:02;;;;;;;;;7.00;7.00;;;;;;;;1998820;28;1819027;-71
2023/05/28 00:31:13;;;;;;;;;12.00;11.00;;;;;;;;1976698;28;2787888;-71
2023/05/28 00:32:24;;;;;;;;;8.33;7.33;;;;;;;;2018159;28;1818054;-71
2023/05/28 00:33:37;;;;;;;;;13.00;11.17;;;;;;;;2016141;28;1819533;-71
2023/05/28 00:34:48;;;;;;;;;10.00;10.00;;;;;;;;1976797;28;1831503;-71
2023/05/28 00:35:58;;;;;;;;;11.50;9.00;;;;;;;;1984730;28;2759672;-71
2023/05/28 00:37:09;;;;;;;;;12.00;10.00;;;;;;;;1982322;28;2782527;-71
2023/05/28 00:38:22;;;;;;;;;12.33;9.67;;;;;;;;2006401;28;2786718;-71
2023/05/28 00:39:35;;;;;;;;;12.67;8.83;;;;;;;;1991983;28;1827471;-71
2023/05/28 00:40:45;;;;;;;;;10.00;8.33;;;;;;;;1963837;28;3471104;-71
2023/05/28 00:42:02;;;;;;;;;12.00;8.00;;;;;;;;2008993;28;2757597;-71
2023/05/28 00:43:16;;;;;;;;;11.33;9.33;;;;;;;;2015928;28;1820078;-71
2023/05/28 00:44:32;;;;;;;;;8.83;7.83;;;;;;;;1995720;28;1819052;-71
2023/05/28 00:45:42;;;;;;;;;8.50;8.00;;;;;;;;1962400;28;2740871;-71
2023/05/28 00:46:54;;;;;;;;;9.00;6.67;;;;;;;;2012475;28;2728381;-70
2023/05/28 00:48:07;;;;;;;;;11.17;8.50;;;;;;;;2017059;28;1819117;-71
2023/05/28 00:49:17;;;;;;;;;11.50;8.50;;;;;;;;1961681;28;2772136;-71
2023/05/28 00:50:28;;;;;;;;;8.00;8.00;;;;;;;;2007388;28;2738807;-71
2023/05/28 00:51:40;;;;;;;;;10.00;9.50;;;;;;;;1997716;28;2780495;-71
2023/05/28 00:52:52;;;;;;;;;12.50;9.00;;;;;;;;1985005;28;2764875;-71
2023/05/28 00:54:03;;;;;;;;;7.75;7.00;;;;;;;;2000964;28;1831043;-71
2023/05/28 00:55:14;;;;;;;;;10.00;9.00;;;;;;;;1984940;28;2762761;-71
2023/05/28 00:56:26;;;;;;;;;15.00;9.50;;;;;;;;1982680;28;2779435;-71
2023/05/28 00:57:37;;;;;;;;;8.00;8.00;;;;;;;;1978982;28;2735687;-70
2023/05/28 00:58:48;;;;;;;;;12.50;9.50;;;;;;;;1982878;28;2774246;-70
2023/05/28 01:00:01;;;;;;;;;9.00;8.00;;;;;;;;1985009;28;2747144;-70
2023/05/28 01:01:13;;;;;;;;;10.40;8.40;;;;;;;;2003854;28;2763337;-70
2023/05/28 01:02:23;;;;;;;;;8.50;8.50;;;;;;;;1984367;28;2747208;-71
2023/05/28 01:03:38;;;;;;;;;5.67;5.67;;;;;;;;2010889;28;2740975;-71
2023/05/28 01:04:48;;;;;;;;;12.50;10.50;;;;;;;;1983928;28;2784679;-70
2023/05/28 01:06:01;;;;;;;;;10.00;8.50;;;;;;;;1983789;28;2763786;-70
2023/05/28 01:07:15;;;;;;;;;9.71;9.29;;;;;;;;2016163;28;2772242;-71
2023/05/28 01:08:25;;;;;;;;;10.00;8.00;;;;;;;;1983762;28;2768004;-71
2023/05/28 01:09:37;;;;;;;;;11.60;9.00;;;;;;;;2014099;28;1823800;-71
2023/05/28 01:10:50;;;;;;;;;15.00;9.67;;;;;;;;1993855;28;1826352;-71
2023/05/28 01:12:02;;;;;;;;;10.00;9.00;;;;;;;;1962135;28;2773184;-71
2023/05/28 01:13:15;;;;;;;;;8.67;6.83;;;;;;;;2012217;28;2742986;-71
2023/05/28 01:14:25;;;;;;;;;11.00;10.00;;;;;;;;1961197;28;2780493;-71
2023/05/28 01:15:37;;;;;;;;;9.50;9.25;;;;;;;;1989334;28;1823228;-71
2023/05/28 01:16:51;;;;;;;;;11.50;11.00;;;;;;;;1961262;28;2789843;-71
2023/05/28 01:18:03;;;;;;;;;10.33;9.33;;;;;;;;1959038;28;2772595;-71
2023/05/28 01:19:18;;;;;;;;;12.86;10.00;;;;;;;;2014975;28;1821184;-71
2023/05/28 01:20:30;;;;;;;;;10.00;10.00;;;;;;;;1983526;28;2775264;-71
2023/05/28 01:21:41;;;;;;;;;12.00;7.50;;;;;;;;1985610;28;2757573;-71
2023/05/28 01:22:53;;;;;;;;;11.00;10.00;;;;;;;;1991035;28;2783605;-71
2023/05/28 01:24:07;;;;;;;;;11.33;11.33;;;;;;;;2014965;28;1833693;-71
2023/05/28 01:25:18;;;;;;;;;14.00;10.50;;;;;;;;1961975;28;2786758;-70
2023/05/28 01:26:29;;;;;;;;;11.50;9.50;;;;;;;;1969609;28;2762749;-70
2023/05/28 01:27:40;;;;;;;;;14.00;10.00;;;;;;;;1981573;28;2798184;-71
2023/05/28 01:28:51;;;;;;;;;12.00;10.75;;;;;;;;1988765;28;1822155;-71
2023/05/28 01:30:02;;;;;;;;;14.00;12.00;;;;;;;;1983110;28;2787720;-71
2023/05/28 01:31:13;;;;;;;;;15.00;9.50;;;;;;;;1963037;28;2794025;-71
2023/05/28 01:32:24;;;;;;;;;11.00;10.00;;;;;;;;1986089;28;2784651;-71
2023/05/28 01:33:35;;;;;;;;;13.00;10.00;;;;;;;;1960695;28;2785704;-71
2023/05/28 01:34:46;;;;;;;;;10.25;10.25;;;;;;;;1982275;28;2778374;-71
2023/05/28 01:35:58;;;;;;;;;12.00;11.50;;;;;;;;1983560;28;2794414;-71
2023/05/28 01:37:10;;;;;;;;;17.00;15.00;;;;;;;;1960311;28;3557529;-70
2023/05/28 01:38:21;;;;;;;;;15.50;12.00;;;;;;;;1987529;28;2794021;-71
2023/05/28 01:39:36;;;;;;;;;11.00;9.50;;;;;;;;1983716;28;2772219;-71
2023/05/28 01:40:47;;;;;;;;;11.50;11.00;;;;;;;;1959568;28;2786747;-70
2023/05/28 01:41:58;;;;;;;;;13.50;11.00;;;;;;;;1959994;28;2796117;-70
2023/05/28 01:43:11;;;;;;;;;13.40;10.40;;;;;;;;1990653;28;1820087;-71
2023/05/28 01:44:22;;;;;;;;;13.50;11.00;;;;;;;;1982839;28;2789815;-71
2023/05/28 01:45:33;;;;;;;;;13.00;12.00;;;;;;;;1960446;28;2790890;-70
2023/05/28 01:46:49;;;;;;;;;13.20;11.00;;;;;;;;1988879;28;1820063;-70
2023/05/28 01:47:59;;;;;;;;;13.50;10.00;;;;;;;;1983979;28;2787759;-70
2023/05/28 01:49:10;;;;;;;;;7.67;6.00;;;;;;;;1982701;28;3451242;-70
2023/05/28 01:50:22;;;;;;;;;15.00;10.50;;;;;;;;2003450;28;2788813;-70
2023/05/28 01:51:35;;;;;;;;;11.17;10.17;;;;;;;;1990206;28;1820040;-70
2023/05/28 01:52:46;;;;;;;;;13.67;12.00;;;;;;;;1961150;28;2794049;-71
2023/05/28 01:53:57;;;;;;;;;10.50;10.50;;;;;;;;1981786;28;2785687;-71
2023/05/28 01:55:13;;;;;;;;;12.50;11.00;;;;;;;;1984536;28;2794010;-71
2023/05/28 01:56:26;;;;;;;;;10.83;10.33;;;;;;;;2014899;28;1821171;-71
2023/05/28 01:57:40;;;;;;;;;13.00;11.00;;;;;;;;1962073;28;2788844;-71
2023/05/28 01:58:50;;;;;;;;;19.00;12.50;;;;;;;;1961888;28;2802378;-70
2023/05/28 02:00:03;;;;;;;;;13.83;12.33;;;;;;;;2007059;28;2805488;-70
2023/05/28 02:01:13;;;;;;;;;13.00;12.00;;;;;;;;1961758;28;2788819;-70
2023/05/28 02:02:26;;;;;;;;;16.43;13.00;;;;;;;;1986027;28;2805468;-70
2023/05/28 02:03:37;;;;;;;;;14.00;12.00;;;;;;;;1986999;28;2790307;-71
2023/05/28 02:04:49;;;;;;;;;16.00;14.57;;;;;;;;1986559;28;3534617;-71
2023/05/28 02:06:02;;;;;;;;;16.29;14.14;;;;;;;;2006157;28;3546087;-71
2023/05/28 02:07:13;;;;;;;;;6.33;6.33;;;;;;;;2003434;28;3447116;-71
2023/05/28 02:08:25;;;;;;;;;14.80;12.80;;;;;;;;2011837;28;3508000;-70
2023/05/28 02:09:36;;;;;;;;;13.75;12.25;;;;;;;;2012666;28;1820079;-71
2023/05/28 02:10:46;;;;;;;;;14.50;12.25;;;;;;;;1990202;28;2784655;-71
2023/05/28 02:12:02;;;;;;;;;10.83;10.83;;;;;;;;1984950;28;2801306;-71
2023/05/28 02:13:12;;;;;;;;;18.00;13.50;;;;;;;;1962761;28;2814795;-70
2023/05/28 02:14:24;;;;;;;;;14.80;11.40;;;;;;;;1991974;28;3522082;-70
2023/05/28 02:15:36;;;;;;;;;11.00;7.50;;;;;;;;2004365;28;2766959;-70
2023/05/28 02:16:49;;;;;;;;;14.33;11.83;;;;;;;;2013406;28;1825279;-70
2023/05/28 02:18:00;;;;;;;;;16.00;11.33;;;;;;;;1984084;28;2803396;-70
2023/05/28 02:19:11;;;;;;;;;15.00;13.67;;;;;;;;1983822;28;2821178;-70
2023/05/28 02:20:23;;;;;;;;;16.00;12.67;;;;;;;;1981359;28;2810773;-71
2023/05/28 02:21:36;;;;;;;;;14.00;14.00;;;;;;;;1987061;28;2790885;-71
2023/05/28 02:22:49;;;;;;;;;12.50;11.50;;;;;;;;2015451;28;1821109;-70
2023/05/28 02:24:02;;;;;;;;;12.17;11.17;;;;;;;;1992639;28;1830554;-71
2023/05/28 02:25:12;;;;;;;;;14.50;11.00;;;;;;;;1961725;28;2790912;-70
2023/05/28 02:26:25;;;;;;;;;15.14;12.00;;;;;;;;1983957;28;3519006;-70
2023/05/28 02:27:37;;;;;;;;;12.40;12.20;;;;;;;;2011419;28;3538756;-71
2023/05/28 02:28:48;;;;;;;;;12.00;10.50;;;;;;;;2000600;28;2785131;-71
2023/05/28 02:30:01;;;;;;;;;19.71;12.57;;;;;;;;2007375;28;3547101;-71
2023/05/28 02:31:12;;;;;;;;;15.00;12.00;;;;;;;;1975768;28;2791931;-71
2023/05/28 02:32:23;;;;;;;;;16.40;12.40;;;;;;;;1969624;28;2800658;-70
2023/05/28 02:33:34;;;;;;;;;17.00;14.00;;;;;;;;1987308;28;2803348;-71
2023/05/28 02:34:45;;;;;;;;;14.00;10.00;;;;;;;;1989508;28;1827411;-71
2023/05/28 02:35:56;;;;;;;;;14.33;11.67;;;;;;;;1985182;28;2798257;-71
2023/05/28 02:37:10;;;;;;;;;13.14;12.14;;;;;;;;2013336;28;1833803;-71
2023/05/28 02:38:23;;;;;;;;;4.33;3.00;;;;;;;;2019426;28;2744015;-70
2023/05/28 02:39:33;;;;;;;;;14.00;10.50;;;;;;;;1968461;28;2794005;-70
2023/05/28 02:40:45;;;;;;;;;15.40;13.60;;;;;;;;1995160;28;2800301;-71
2023/05/28 02:41:56;;;;;;;;;18.00;13.67;;;;;;;;1995301;28;2826257;-71
2023/05/28 02:43:06;;;;;;;;;13.00;9.50;;;;;;;;1981005;28;2785696;-71
2023/05/28 02:44:17;;;;;;;;;11.00;10.00;;;;;;;;1984797;28;2782529;-71
2023/05/28 02:45:30;;;;;;;;;17.29;14.00;;;;;;;;2012781;28;3555445;-71
2023/05/28 02:46:43;;;;;;;;;14.71;12.71;;;;;;;;2014688;28;3529411;-71
2023/05/28 02:47:54;;;;;;;;;12.25;9.75;;;;;;;;2019973;28;1829529;-71
2023/05/28 02:49:06;;;;;;;;;14.50;12.00;;;;;;;;1995054;28;2788833;-71
2023/05/28 02:50:16;;;;;;;;;13.00;13.00;;;;;;;;1968706;28;2794020;-71
2023/05/28 02:51:28;;;;;;;;;17.00;15.00;;;;;;;;1995548;28;3545001;-70
2023/05/28 02:52:40;;;;;;;;;16.14;13.43;;;;;;;;2015171;28;2800240;-70
2023/05/28 02:53:52;;;;;;;;;21.67;12.33;;;;;;;;1990904;28;3564808;-71
2023/05/28 02:55:05;;;;;;;;;17.29;16.29;;;;;;;;2011455;28;3549181;-71
2023/05/28 02:56:16;;;;;;;;;11.50;11.00;;;;;;;;1997442;28;2790876;-71
2023/05/28 02:57:27;;;;;;;;;20.00;13.00;;;;;;;;1986714;28;3543289;-70
2023/05/28 02:58:40;;;;;;;;;16.43;13.14;;;;;;;;2007772;28;2798173;-70
2023/05/28 02:59:50;;;;;;;;;11.50;11.00;;;;;;;;1987417;28;2789843;-70
2023/05/28 03:01:03;;;;;;;;;17.71;14.29;;;;;;;;2016845;28;3518996;-70
2023/05/28 03:02:15;;;;;;;;;14.00;12.40;;;;;;;;2017984;28;3528312;-70
2023/05/28 03:03:28;;;;;;;;;14.14;13.57;;;;;;;;2016165;28;3523178;-70
2023/05/28 03:04:40;;;;;;;;;17.14;13.57;;;;;;;;2014895;28;3526312;-70
2023/05/28 03:05:52;;;;;;;;;22.20;16.00;;;;;;;;2020886;28;3566860;-70
2023/05/28 03:07:04;;;;;;;;;19.00;13.80;;;;;;;;2020639;28;3533547;-70
2023/05/28 03:08:17;;;;;;;;;14.00;12.83;;;;;;;;2033327;28;2790865;-70
2023/05/28 03:09:30;;;;;;;;;14.57;13.86;;;;;;;;1990406;28;2806497;-70
2023/05/28 03:10:40;;;;;;;;;13.50;13.50;;;;;;;;1992766;28;2814849;-70
2023/05/28 03:11:53;;;;;;;;;15.86;15.57;;;;;;;;1992598;28;3548102;-70
2023/05/28 03:13:06;;;;;;;;;20.00;13.43;;;;;;;;2016544;28;3550238;-70
2023/05/28 03:14:19;;;;;;;;;20.43;15.57;;;;;;;;2016067;28;3561757;-71
2023/05/28 03:15:32;;;;;;;;;20.71;16.86;;;;;;;;2013712;28;3569007;-71
2023/05/28 03:16:44;;;;;;;;;21.80;13.40;;;;;;;;1992817;28;3572088;-71
2023/05/28 03:17:55;;;;;;;;;15.60;14.80;;;;;;;;2013838;28;3546054;-70
2023/05/28 03:19:09;;;;;;;;;14.33;13.33;;;;;;;;2034642;28;2795084;-70
2023/05/28 03:20:20;;;;;;;;;13.40;11.20;;;;;;;;1987389;28;3513788;-70
2023/05/28 03:21:32;;;;;;;;;14.00;11.33;;;;;;;;2007299;28;2789273;-70
2023/05/28 03:22:42;;;;;;;;;11.00;8.00;;;;;;;;1995114;28;3470367;-70
2023/05/28 03:23:54;;;;;;;;;18.80;15.00;;;;;;;;2019188;28;1834708;-70
2023/05/28 03:25:06;;;;;;;;;16.67;15.00;;;;;;;;1991019;28;3549188;-70
2023/05/28 03:26:17;;;;;;;;;19.00;14.60;;;;;;;;2006094;28;3542911;-70
2023/05/28 03:27:29;;;;;;;;;16.60;14.60;;;;;;;;2011507;28;3537726;-70
2023/05/28 03:28:42;;;;;;;;;18.00;13.57;;;;;;;;2014511;28;2811706;-70
2023/05/28 03:29:52;;;;;;;;;23.00;14.50;;;;;;;;1992241;28;2829421;-71
2023/05/28 03:31:05;;;;;;;;;16.57;14.43;;;;;;;;1992852;28;3543951;-71
2023/05/28 03:32:17;;;;;;;;;20.60;15.60;;;;;;;;2021713;28;3554737;-71
2023/05/28 03:33:29;;;;;;;;;15.20;14.20;;;;;;;;2020064;28;3538760;-70
2023/05/28 03:34:42;;;;;;;;;16.29;14.43;;;;;;;;2012523;28;3539835;-70
2023/05/28 03:35:54;;;;;;;;;15.00;13.60;;;;;;;;2012908;28;3545001;-71
2023/05/28 03:37:05;;;;;;;;;19.00;15.00;;;;;;;;1990488;28;3546138;-70
2023/05/28 03:38:18;;;;;;;;;21.71;15.00;;;;;;;;2015452;28;3562748;-71
2023/05/28 03:39:31;;;;;;;;;17.57;15.86;;;;;;;;2012374;28;3548178;-71
2023/05/28 03:40:43;;;;;;;;;14.40;11.60;;;;;;;;2007812;28;2784723;-70
2023/05/28 03:41:53;;;;;;;;;21.00;15.00;;;;;;;;1989127;28;2825219;-70
2023/05/28 03:43:05;;;;;;;;;16.40;16.00;;;;;;;;1998034;28;3550186;-70
2023/05/28 03:44:17;;;;;;;;;15.80;12.00;;;;;;;;2022075;28;3532506;-70
2023/05/28 03:45:28;;;;;;;;;18.00;13.33;;;;;;;;2005909;28;2807575;-70
2023/05/28 03:46:39;;;;;;;;;24.50;15.50;;;;;;;;1992762;28;2826355;-70
2023/05/28 03:47:50;;;;;;;;;12.50;10.50;;;;;;;;1984748;28;2789835;-70
2023/05/28 03:49:01;;;;;;;;;15.00;13.00;;;;;;;;1983702;28;2821462;-71
2023/05/28 03:50:13;;;;;;;;;17.80;13.80;;;;;;;;1980678;28;3547069;-71
2023/05/28 03:51:26;;;;;;;;;19.71;14.57;;;;;;;;2015447;28;3540862;-71
2023/05/28 03:52:37;;;;;;;;;13.00;11.00;;;;;;;;1997122;28;2789222;-71
2023/05/28 03:53:49;;;;;;;;;20.00;17.20;;;;;;;;1995418;28;3560625;-70
2023/05/28 03:55:00;;;;;;;;;15.33;13.00;;;;;;;;1997973;28;2797179;-70
2023/05/28 03:56:10;;;;;;;;;14.50;14.00;;;;;;;;1994114;28;2804434;-70
2023/05/28 03:57:23;;;;;;;;;20.86;15.71;;;;;;;;2008497;28;3556499;-70
2023/05/28 03:58:36;;;;;;;;;20.14;15.71;;;;;;;;2007457;28;3549202;-70
2023/05/28 03:59:47;;;;;;;;;16.00;14.50;;;;;;;;2018561;28;1833635;-70
2023/05/28 04:00:59;;;;;;;;;15.67;13.00;;;;;;;;1997147;28;3552340;-70
2023/05/28 04:02:10;;;;;;;;;19.00;13.50;;;;;;;;1994229;28;2815903;-70
2023/05/28 04:03:21;;;;;;;;;14.80;14.20;;;;;;;;1994513;28;2793971;-70
2023/05/28 04:04:33;;;;;;;;;18.00;11.67;;;;;;;;1990221;28;2814912;-70
2023/05/28 04:05:43;;;;;;;;;16.00;14.00;;;;;;;;1992370;28;2813809;-70
2023/05/28 04:06:56;;;;;;;;;19.43;17.57;;;;;;;;1991950;28;3571023;-71
2023/05/28 04:08:08;;;;;;;;;19.60;16.60;;;;;;;;1997072;28;3562729;-70
2023/05/28 04:09:21;;;;;;;;;17.29;15.00;;;;;;;;2013734;28;3541952;-71
2023/05/28 04:10:32;;;;;;;;;17.20;16.00;;;;;;;;2018787;28;3553321;-70
2023/05/28 04:11:45;;;;;;;;;15.00;12.86;;;;;;;;2014092;28;2809610;-70
2023/05/28 04:12:56;;;;;;;;;16.00;12.00;;;;;;;;1993644;28;2803380;-70
2023/05/28 04:14:09;;;;;;;;;15.33;12.67;;;;;;;;1998588;28;3536700;-70
2023/05/28 04:15:20;;;;;;;;;19.67;17.67;;;;;;;;1985247;28;3563139;-70
2023/05/28 04:16:32;;;;;;;;;19.67;14.00;;;;;;;;2007199;28;3525249;-70
2023/05/28 04:17:45;;;;;;;;;20.57;15.29;;;;;;;;2015203;28;3548517;-70
2023/05/28 04:18:56;;;;;;;;;12.33;9.83;;;;;;;;2012958;28;2784600;-71
2023/05/28 04:20:09;;;;;;;;;21.80;16.40;;;;;;;;1995225;28;3565842;-70
2023/05/28 04:21:23;;;;;;;;;16.67;15.00;;;;;;;;1996334;28;2814818;-70
2023/05/28 04:22:33;;;;;;;;;18.00;17.50;;;;;;;;1993833;28;2826279;-70
2023/05/28 04:23:45;;;;;;;;;18.00;16.33;;;;;;;;1979806;28;3551346;-70
2023/05/28 04:24:57;;;;;;;;;20.67;17.33;;;;;;;;2003623;28;3566922;-70
2023/05/28 04:26:09;;;;;;;;;20.80;16.20;;;;;;;;2017225;28;3566876;-70
2023/05/28 04:27:21;;;;;;;;;19.33;15.00;;;;;;;;1998088;28;3553374;-71
2023/05/28 04:28:33;;;;;;;;;17.67;13.00;;;;;;;;2006829;28;3564827;-71
2023/05/28 04:29:45;;;;;;;;;20.20;18.00;;;;;;;;2007210;28;3570000;-70
2023/05/28 04:31:00;;;;;;;;;18.60;17.00;;;;;;;;1982665;28;3559565;-70
2023/05/28 04:32:11;;;;;;;;;23.00;17.50;;;;;;;;1992391;28;2837753;-70
2023/05/28 04:33:24;;;;;;;;;20.71;17.14;;;;;;;;1993324;28;3558696;-70
2023/05/28 04:34:40;;;;;;;;;24.71;18.86;;;;;;;;2002857;28;3583020;-71
2023/05/28 04:35:51;;;;;;;;;20.00;18.33;;;;;;;;1963155;28;3571469;-70
2023/05/28 04:37:04;;;;;;;;;20.29;19.00;;;;;;;;2012654;28;3566898;-70
2023/05/28 04:38:17;;;;;;;;;17.00;14.60;;;;;;;;1996874;28;3536703;-70
2023/05/28 04:39:28;;;;;;;;;18.33;15.00;;;;;;;;1990283;28;2800289;-70
2023/05/28 04:40:39;;;;;;;;;18.00;18.00;;;;;;;;1993044;28;2828399;-70
2023/05/28 04:41:51;;;;;;;;;20.00;18.00;;;;;;;;1970226;28;2837770;-70
2023/05/28 04:43:01;;;;;;;;;23.50;17.50;;;;;;;;1970312;28;2832577;-70
2023/05/28 04:44:15;;;;;;;;;22.00;17.00;;;;;;;;1968069;28;3569304;-70
2023/05/28 04:45:26;;;;;;;;;18.00;14.67;;;;;;;;1959957;28;3548115;-70
2023/05/28 04:46:38;;;;;;;;;19.00;15.40;;;;;;;;2005409;28;3554373;-70
2023/05/28 04:47:50;;;;;;;;;22.80;17.40;;;;;;;;2007526;28;3571050;-70
2023/05/28 04:49:02;;;;;;;;;19.80;17.20;;;;;;;;2021197;28;3561655;-70
2023/05/28 04:50:14;;;;;;;;;23.67;17.33;;;;;;;;2004897;28;3572096;-70
2023/05/28 04:51:27;;;;;;;;;19.57;17.29;;;;;;;;2011859;28;3562801;-71
2023/05/28 04:52:39;;;;;;;;;23.60;18.80;;;;;;;;2018746;28;3575264;-71
2023/05/28 04:53:51;;;;;;;;;22.20;20.20;;;;;;;;1996936;28;3560650;-70
2023/05/28 04:55:06;;;;;;;;;21.40;19.00;;;;;;;;2020298;28;3563735;-70
2023/05/28 04:56:16;;;;;;;;;25.00;19.50;;;;;;;;1993133;28;2848139;-70
2023/05/28 04:57:28;;;;;;;;;21.80;17.40;;;;;;;;1997524;28;3567948;-70
2023/05/28 04:58:40;;;;;;;;;23.20;17.60;;;;;;;;2020424;28;3585621;-70
2023/05/28 04:59:52;;;;;;;;;21.60;18.60;;;;;;;;1995130;28;3573156;-70
2023/05/28 05:01:04;;;;;;;;;16.60;12.80;;;;;;;;2018916;28;3535587;-70
2023/05/28 05:02:18;;;;;;;;;19.00;17.00;;;;;;;;1990413;28;3563779;-71
2023/05/28 05:03:30;;;;;;;;;27.00;20.00;;;;;;;;1993501;28;2854443;-70
2023/05/28 05:04:40;;;;;;;;;26.00;22.50;;;;;;;;1970900;28;2845084;-70
2023/05/28 05:05:52;;;;;;;;;21.60;18.20;;;;;;;;1993672;28;3557497;-70
2023/05/28 05:07:04;;;;;;;;;29.00;24.00;;;;;;;;2020360;28;3588733;-70
2023/05/28 05:08:16;;;;;;;;;22.60;19.20;;;;;;;;1996237;28;3566890;-70
2023/05/28 05:09:30;;;;;;;;;24.00;21.40;;;;;;;;2016345;28;3578333;-70
2023/05/28 05:10:41;;;;;;;;;21.00;19.33;;;;;;;;1971339;28;2833587;-71
2023/05/28 05:11:52;;;;;;;;;25.67;21.67;;;;;;;;1990468;28;3583561;-71
2023/05/28 05:13:04;;;;;;;;;24.60;21.80;;;;;;;;1996550;28;3559564;-70
2023/05/28 05:14:16;;;;;;;;;26.80;23.20;;;;;;;;2020543;28;3589775;-70
2023/05/28 05:15:28;;;;;;;;;21.80;19.40;;;;;;;;1996532;28;3562704;-70
2023/05/28 05:16:41;;;;;;;;;19.40;17.00;;;;;;;;2019875;28;3557508;-70
2023/05/28 05:17:52;;;;;;;;;18.00;18.00;;;;;;;;1997809;28;3569018;-71
2023/05/28 05:19:04;;;;;;;;;21.00;19.40;;;;;;;;2018834;28;3572072;-71
2023/05/28 05:20:16;;;;;;;;;24.40;20.60;;;;;;;;2019589;28;3587756;-70
2023/05/28 05:21:28;;;;;;;;;23.00;19.00;;;;;;;;1972961;28;3579414;-70
2023/05/28 05:22:40;;;;;;;;;21.20;18.20;;;;;;;;2018394;28;3566884;-70
2023/05/28 05:23:52;;;;;;;;;20.14;18.71;;;;;;;;2015807;28;3564812;-70
2023/05/28 05:25:06;;;;;;;;;20.40;18.20;;;;;;;;1996820;28;3563727;-70
2023/05/28 05:26:17;;;;;;;;;25.50;20.00;;;;;;;;1986302;28;2846048;-70
2023/05/28 05:27:28;;;;;;;;;20.60;17.40;;;;;;;;1968103;28;3572092;-70
2023/05/28 05:28:41;;;;;;;;;21.60;19.60;;;;;;;;2018765;28;3579384;-70
2023/05/28 05:29:52;;;;;;;;;26.67;17.33;;;;;;;;1966052;28;3591929;-70
2023/05/28 05:31:04;;;;;;;;;23.20;19.80;;;;;;;;1995710;28;3573100;-70
2023/05/28 05:32:15;;;;;;;;;22.20;18.00;;;;;;;;2000695;28;2840148;-70
2023/05/28 05:33:28;;;;;;;;;22.71;18.57;;;;;;;;2012333;28;3575205;-70
2023/05/28 05:34:40;;;;;;;;;21.20;20.60;;;;;;;;2020617;28;3575221;-70
2023/05/28 05:35:52;;;;;;;;;23.40;20.40;;;;;;;;1974476;28;3581485;-70
2023/05/28 05:37:04;;;;;;;;;19.00;17.60;;;;;;;;1986979;28;3561722;-70
2023/05/28 05:38:16;;;;;;;;;26.40;20.40;;;;;;;;2010157;28;3588737;-70
2023/05/28 05:39:28;;;;;;;;;18.40;17.40;;;;;;;;1989265;28;3554378;-70
2023/05/28 05:40:40;;;;;;;;;24.60;19.60;;;;;;;;2006924;28;3576250;-70
2023/05/28 05:41:51;;;;;;;;;22.60;16.40;;;;;;;;1995567;28;3574541;-70
2023/05/28 05:43:03;;;;;;;;;25.80;21.20;;;;;;;;1996652;28;3583518;-70
2023/05/28 05:44:15;;;;;;;;;26.00;19.00;;;;;;;;1996593;28;3584590;-70
2023/05/28 05:45:27;;;;;;;;;15.40;15.20;;;;;;;;1995031;28;3512695;-70
2023/05/28 05:46:40;;;;;;;;;21.80;21.60;;;;;;;;2019980;28;3576270;-70
2023/05/28 05:47:51;;;;;;;;;25.60;23.20;;;;;;;;1971651;28;3583893;-70
2023/05/28 05:49:03;;;;;;;;;25.20;19.60;;;;;;;;1989210;28;3577302;-70
2023/05/28 05:50:15;;;;;;;;;24.00;21.60;;;;;;;;1993120;28;3587688;-70
2023/05/28 05:51:27;;;;;;;;;19.20;17.20;;;;;;;;1994309;28;3559580;-70
2023/05/28 05:52:40;;;;;;;;;25.20;22.40;;;;;;;;2018939;28;3580413;-70
2023/05/28 05:53:52;;;;;;;;;21.33;20.00;;;;;;;;1966212;28;3581891;-70
2023/05/28 05:55:04;;;;;;;;;25.60;21.00;;;;;;;;1996938;28;3589781;-70
2023/05/28 05:56:16;;;;;;;;;25.20;20.80;;;;;;;;1994611;28;3593957;-70
2023/05/28 05:57:27;;;;;;;;;20.40;19.00;;;;;;;;1979528;28;3566856;-70
2023/05/28 05:58:39;;;;;;;;;21.40;18.80;;;;;;;;2019276;28;3571066;-70
2023/05/28 05:59:51;;;;;;;;;22.00;21.20;;;;;;;;2020374;28;3568983;-70
2023/05/28 06:01:03;;;;;;;;;24.00;19.00;;;;;;;;1994354;28;3572075;-70
2023/05/28 06:02:15;;;;;;;;;22.60;18.80;;;;;;;;2008899;28;3578388;-70
2023/05/28 06:03:27;;;;;;;;;26.60;20.40;;;;;;;;1994626;28;3577291;-70
2023/05/28 06:04:38;;;;;;;;;9.50;7.00;;;;;;;;2011911;28;2762769;-70
2023/05/28 06:05:51;;;;;;;;;19.80;19.80;;;;;;;;2012973;28;3561672;-70
2023/05/28 06:07:06;;;;;;;;;22.00;20.00;;;;;;;;1994568;28;2840882;-70
2023/05/28 06:08:17;;;;;;;;;17.67;15.00;;;;;;;;1969124;28;3539809;-70
2023/05/28 06:09:30;;;;;;;;;15.00;13.60;;;;;;;;2019206;28;3538761;-70
2023/05/28 06:10:41;;;;;;;;;23.00;19.67;;;;;;;;1989818;28;3572497;-70
2023/05/28 06:11:53;;;;;;;;;22.60;19.60;;;;;;;;2016652;28;3577257;-70
2023/05/28 06:13:04;;;;;;;;;23.60;19.80;;;;;;;;2000131;28;2840946;-70
2023/05/28 06:14:16;;;;;;;;;20.33;15.00;;;;;;;;2000577;28;3555426;-70
2023/05/28 06:15:28;;;;;;;;;21.60;18.40;;;;;;;;2012585;28;3567898;-70
2023/05/28 06:16:40;;;;;;;;;16.00;14.00;;;;;;;;1982000;28;3550261;-71
2023/05/28 06:17:51;;;;;;;;;14.50;13.00;;;;;;;;1991578;28;2796668;-70
2023/05/28 06:19:02;;;;;;;;;16.60;14.60;;;;;;;;1993900;28;2794149;-70
2023/05/28 06:20:14;;;;;;;;;16.00;13.00;;;;;;;;1980742;28;2800259;-70
2023/05/28 06:21:26;;;;;;;;;18.33;14.33;;;;;;;;1987736;28;2805527;-71
2023/05/28 06:22:36;;;;;;;;;21.00;16.00;;;;;;;;1977983;28;2829429;-71
2023/05/28 06:23:48;;;;;;;;;19.80;18.00;;;;;;;;1980348;28;3566880;-71
2023/05/28 06:25:00;;;;;;;;;19.80;14.80;;;;;;;;2015232;28;3545019;-70
2023/05/28 06:26:12;;;;;;;;;20.00;17.60;;;;;;;;1997856;28;3565870;-71
2023/05/28 06:27:24;;;;;;;;;22.20;18.20;;;;;;;;2001445;28;3569002;-71
2023/05/28 06:28:35;;;;;;;;;17.60;12.60;;;;;;;;1987421;28;3518945;-70
2023/05/28 06:29:48;;;;;;;;;20.80;19.20;;;;;;;;2000738;28;3553781;-70
2023/05/28 06:30:59;;;;;;;;;24.00;18.80;;;;;;;;1997593;28;3581475;-70
2023/05/28 06:32:13;;;;;;;;;23.00;18.71;;;;;;;;1975173;28;3577340;-70
2023/05/28 06:33:24;;;;;;;;;17.60;15.80;;;;;;;;1965954;28;3550258;-70
2023/05/28 06:34:36;;;;;;;;;21.00;20.20;;;;;;;;2012772;28;3570355;-71
2023/05/28 06:35:49;;;;;;;;;18.86;17.71;;;;;;;;2010797;28;3557553;-71
2023/05/28 06:37:01;;;;;;;;;23.80;21.80;;;;;;;;2003097;28;3575667;-71
2023/05/28 06:38:13;;;;;;;;;23.00;17.20;;;;;;;;1983235;28;3560680;-71
2023/05/28 06:39:26;;;;;;;;;22.29;17.14;;;;;;;;2005400;28;3579383;-71
2023/05/28 06:40:37;;;;;;;;;20.60;17.80;;;;;;;;1979642;28;3577303;-70
2023/05/28 06:41:48;;;;;;;;;26.40;20.00;;;;;;;;1989028;28;2831548;-71
2023/05/28 06:43:01;;;;;;;;;21.20;20.20;;;;;;;;1985822;28;3565855;-70
2023/05/28 06:44:11;;;;;;;;;24.50;21.00;;;;;;;;1981941;28;2825323;-70
2023/05/28 06:45:23;;;;;;;;;23.00;18.40;;;;;;;;1987410;28;3566900;-70
2023/05/28 06:46:35;;;;;;;;;23.20;20.80;;;;;;;;2010785;28;3574144;-71
2023/05/28 06:47:47;;;;;;;;;24.40;21.00;;;;;;;;1984795;28;3577328;-71